Pagina principale
METAR-TAF:

METAR-TAF

Aeroporti :

Aeroporto di Cagliari-Elmas

Cagliari, Italia

latitudine: 39-15N, longitudine: 009-04E, altezza: 4 m

Osservazione

Il bollettino è stato emesso 23 minuti fa, alle 01:50 UTC
Vento 5 kt da nord
Temperature 14°C
Umidità 94%
Pressione 1020 hPa
Visibilità 10 km o più
nessuna nube inferiore a 1500 m e nessun cumulonembo

METAR: LIEE 160150Z 35005KT CAVOK 14/13 Q1020

Ora: 04:13 (02:13 UTC)

Previsione

Il bollettino è stato emesso 3 ore e 13 minuti fa, alle 23:00 UTC
Previsione valida dal 16 alle 00 UTC al 16 alle 24 UTC
Vento 12 kt da nord-ovest
Visibilità 10 km o più
Nubi sparse ad un'altezza di 2000 ft

TAF: LIEE 152300Z 1600/1624 32012KT 9999 SCT020

Osservazioni e previsioni meteorologiche di più di 4000 aeroporti (messaggi METAR e TAF).

Le stazioni disponibili sono rappresentate dai dischi gialli e rossi sulla carta.

Puntare il mouse per vedere il nome della stazione.

Clicca sopra per visualizzare le osservazioni e previsioni meteorologiche.

Per cambiare la mappa : fare clic sui pulsanti verdi con una croce nera per ingrandire, il pulsante verde con un trattino per diminuire, o sulla freccia verde per le mappe adiacenti.


METAR-TAF: